createdAt,value
2022-08-28T00:00:06.273Z,100496.88
2022-08-28T00:02:35.502Z,100563.13
2022-08-28T00:05:03.276Z,100572.31
2022-08-28T00:07:31.119Z,100562.56
2022-08-28T00:09:58.848Z,100569.91
2022-08-28T00:12:26.706Z,100569.91
2022-08-28T00:14:54.443Z,100572.75
2022-08-28T00:17:22.199Z,100573.59
2022-08-28T00:19:51.281Z,100571.06
2022-08-28T00:22:19.016Z,100574.75
2022-08-28T00:24:46.728Z,100572.88
2022-08-28T00:27:31.878Z,100559.28
2022-08-28T00:29:59.698Z,100579.28
2022-08-28T00:32:27.395Z,100581.25
2022-08-28T00:34:56.549Z,100574.16
2022-08-28T00:37:24.732Z,100578.69
2022-08-28T00:39:52.659Z,100576.84
2022-08-28T00:42:20.661Z,100572.47
2022-08-28T00:44:49.435Z,100525.63
2022-08-28T00:47:17.204Z,100577.13
2022-08-28T00:49:47.340Z,100574.44
2022-08-28T00:52:16.192Z,100565.09
2022-08-28T00:54:58.509Z,100513.41
2022-08-28T00:57:28.443Z,100513.69
2022-08-28T00:59:56.218Z,100576.69
2022-08-28T01:02:24.045Z,100575.84
2022-08-28T01:04:51.813Z,100575.00
2022-08-28T01:07:23.440Z,100571.44
2022-08-28T01:09:52.313Z,100573.44
2022-08-28T01:12:22.086Z,100556.81
2022-08-28T01:14:50.430Z,100562.06
2022-08-28T01:17:18.834Z,100580.94
2022-08-28T01:19:48.174Z,100558.66
2022-08-28T01:22:23.714Z,100586.31
2022-08-28T01:24:53.791Z,100529.25
2022-08-28T01:27:21.885Z,100585.88
2022-08-28T01:29:52.758Z,100530.63
2022-08-28T01:32:32.079Z,100586.88
2022-08-28T01:35:00.047Z,100586.56
2022-08-28T01:37:27.872Z,100583.72
2022-08-28T01:39:56.987Z,100596.34
2022-08-28T01:42:24.991Z,100595.50
2022-08-28T01:44:54.180Z,100599.31
2022-08-28T01:47:22.312Z,100594.78
2022-08-28T01:49:50.318Z,100585.00
2022-08-28T01:52:18.082Z,100586.13
2022-08-28T01:54:53.150Z,100592.34
2022-08-28T01:57:22.509Z,100597.03
2022-08-28T01:59:50.854Z,100597.88
2022-08-28T02:02:18.669Z,100596.19
2022-08-28T02:04:48.329Z,100591.94
2022-08-28T02:07:17.039Z,100600.97
2022-08-28T02:09:44.881Z,100602.84
2022-08-28T02:12:12.615Z,100604.66
2022-08-28T02:14:41.654Z,100602.97
2022-08-28T02:17:09.401Z,100602.25
2022-08-28T02:19:37.111Z,100610.31
2022-08-28T02:22:08.253Z,100608.75
2022-08-28T02:24:35.963Z,100605.06
2022-08-28T02:27:05.410Z,100606.06
2022-08-28T02:29:33.131Z,100603.50
2022-08-28T02:32:02.228Z,100608.03
2022-08-28T02:34:29.951Z,100610.84
2022-08-28T02:36:57.677Z,100594.72
2022-08-28T02:39:25.451Z,100594.84
2022-08-28T02:41:53.164Z,100589.09
2022-08-28T02:44:20.859Z,100597.63
2022-08-28T02:46:48.574Z,100586.41
2022-08-28T02:49:17.606Z,100592.53
2022-08-28T02:51:45.314Z,100593.66
2022-08-28T02:54:12.994Z,100601.72
2022-08-28T02:56:42.534Z,100603.56
2022-08-28T02:59:10.852Z,100599.19
2022-08-28T03:01:38.637Z,100604.56
2022-08-28T03:04:06.399Z,100605.53
2022-08-28T03:06:35.466Z,100609.34
2022-08-28T03:09:03.151Z,100607.78
2022-08-28T03:11:30.865Z,100604.81
2022-08-28T03:13:58.547Z,100602.41
2022-08-28T03:16:26.410Z,100611.31
2022-08-28T03:18:54.120Z,100610.47
2022-08-28T03:21:21.982Z,100610.47
2022-08-28T03:23:50.040Z,100607.06
2022-08-28T03:26:18.878Z,100605.38
2022-08-28T03:28:47.499Z,100609.88
2022-08-28T03:31:16.452Z,100604.63
2022-08-28T03:33:44.581Z,100601.94
2022-08-28T03:36:13.552Z,100546.72
2022-08-28T03:38:41.666Z,100536.47
2022-08-28T03:41:12.494Z,100614.41
2022-08-28T03:43:40.275Z,100525.53
2022-08-28T03:46:09.174Z,100574.94
2022-08-28T03:48:37.882Z,100579.59
2022-08-28T03:51:09.500Z,100607.59
2022-08-28T03:53:37.209Z,100603.34
2022-08-28T03:56:07.087Z,100613.84
2022-08-28T03:58:36.305Z,100610.28
2022-08-28T04:01:04.124Z,100618.47
2022-08-28T04:03:31.864Z,100614.94
2022-08-28T04:05:59.623Z,100553.00
2022-08-28T04:08:28.544Z,100616.66
2022-08-28T04:10:56.272Z,100607.22
2022-08-28T04:13:24.093Z,100619.16
2022-08-28T04:15:59.807Z,100626.69
2022-08-28T04:18:27.887Z,100631.47
2022-08-28T04:20:59.887Z,100624.41
2022-08-28T04:23:27.606Z,100635.28
2022-08-28T04:25:56.035Z,100626.34
2022-08-28T04:28:23.778Z,100627.03
2022-08-28T04:30:54.486Z,100631.88
2022-08-28T04:33:23.641Z,100638.97
2022-08-28T04:35:51.384Z,100641.78
2022-08-28T04:38:19.073Z,100648.13
2022-08-28T04:40:46.792Z,100644.63
2022-08-28T04:43:14.494Z,100640.94
2022-08-28T04:45:42.435Z,100637.38
2022-08-28T04:48:13.368Z,100642.75
2022-08-28T04:50:43.098Z,100645.44
2022-08-28T04:53:11.067Z,100643.75
2022-08-28T04:55:53.825Z,100652.69
2022-08-28T04:58:23.803Z,100656.47
2022-08-28T05:00:52.660Z,100652.94
2022-08-28T05:03:20.399Z,100657.34
2022-08-28T05:05:54.101Z,100594.22
2022-08-28T05:08:23.096Z,100653.34
2022-08-28T05:10:50.884Z,100661.16
2022-08-28T05:13:18.663Z,100657.84
2022-08-28T05:15:48.165Z,100652.47
2022-08-28T05:18:16.259Z,100556.25
2022-08-28T05:20:44.811Z,100649.78
2022-08-28T05:23:14.119Z,100656.16
2022-08-28T05:25:42.938Z,100653.34
2022-08-28T05:28:12.293Z,100657.84
2022-08-28T05:30:40.749Z,100661.53
2022-08-28T05:33:09.016Z,100654.44
2022-08-28T05:35:37.499Z,100610.00
2022-08-28T05:38:05.280Z,100656.16
2022-08-28T05:40:34.594Z,100610.94
2022-08-28T05:43:02.359Z,100657.00
2022-08-28T05:45:30.068Z,100657.84
2022-08-28T05:47:57.894Z,100661.53
2022-08-28T05:50:25.596Z,100660.69
2022-08-28T05:52:53.316Z,100663.38
2022-08-28T05:55:21.003Z,100666.91
2022-08-28T05:57:50.080Z,100661.53
2022-08-28T06:00:18.436Z,100665.19
2022-08-28T06:02:46.173Z,100668.75
2022-08-28T06:05:14.813Z,100667.88
2022-08-28T06:07:43.132Z,100670.69
2022-08-28T06:10:10.980Z,100669.88
2022-08-28T06:12:38.801Z,100675.13
2022-08-28T06:15:10.570Z,100669.75
2022-08-28T06:17:38.366Z,100679.63
2022-08-28T06:20:07.387Z,100677.06
2022-08-28T06:22:35.144Z,100680.75
2022-08-28T06:25:06.373Z,100683.31
2022-08-28T06:27:36.796Z,100679.75
2022-08-28T06:30:04.923Z,100674.38
2022-08-28T06:32:34.053Z,100684.28
2022-08-28T06:35:01.750Z,100678.72
2022-08-28T06:37:29.467Z,100694.34
2022-08-28T06:39:57.200Z,100695.16
2022-08-28T06:42:25.286Z,100705.09
2022-08-28T06:44:52.976Z,100704.34
2022-08-28T06:47:20.757Z,100708.75
2022-08-28T06:49:49.790Z,100710.72
2022-08-28T06:52:17.498Z,100704.34
2022-08-28T06:54:55.302Z,100708.75
2022-08-28T06:57:25.799Z,100711.56
2022-08-28T06:59:56.584Z,100704.34
2022-08-28T07:02:24.351Z,100704.34
2022-08-28T07:04:57.473Z,100706.31
2022-08-28T07:07:32.384Z,100708.88
2022-08-28T07:10:00.491Z,100714.13
2022-08-28T07:12:28.198Z,100709.72
2022-08-28T07:14:55.892Z,100717.81
2022-08-28T07:17:23.613Z,100708.88
2022-08-28T07:19:51.699Z,100710.59
2022-08-28T07:22:20.756Z,100706.06
2022-08-28T07:24:48.557Z,100708.75
2022-08-28T07:27:19.052Z,100713.16
2022-08-28T07:29:47.156Z,100706.78
2022-08-28T07:32:15.856Z,100706.78
2022-08-28T07:34:43.792Z,100704.09
2022-08-28T07:37:15.232Z,100636.22
2022-08-28T07:39:44.467Z,100709.34
2022-08-28T07:42:35.541Z,100708.47
2022-08-28T07:45:02.859Z,100711.03
2022-08-28T07:47:31.538Z,100654.84
2022-08-28T07:50:00.267Z,100713.59
2022-08-28T07:52:29.431Z,100663.00
2022-08-28T07:54:58.459Z,100718.59
2022-08-28T07:57:26.224Z,100714.06
2022-08-28T07:59:54.146Z,100717.63
2022-08-28T08:02:22.172Z,100721.03
2022-08-28T08:04:49.888Z,100721.63
2022-08-28T08:07:18.157Z,100726.00
2022-08-28T08:09:46.492Z,100727.75
2022-08-28T08:12:15.665Z,100726.75
2022-08-28T08:14:43.666Z,100725.75
2022-08-28T08:17:11.503Z,100726.63
2022-08-28T08:19:40.328Z,100722.78
2022-08-28T08:22:08.062Z,100717.28
2022-08-28T08:24:35.760Z,100721.56
2022-08-28T08:27:03.603Z,100724.00
2022-08-28T08:29:35.380Z,100671.56
2022-08-28T08:32:05.858Z,100718.94
2022-08-28T08:34:34.233Z,100693.88
2022-08-28T08:37:02.255Z,100730.28
2022-08-28T08:39:31.779Z,100735.69
2022-08-28T08:41:59.964Z,100683.06
2022-08-28T08:44:33.764Z,100678.38
2022-08-28T08:47:13.858Z,100734.41
2022-08-28T08:49:44.646Z,100727.69
2022-08-28T08:52:37.608Z,100735.38
2022-08-28T08:55:27.147Z,100738.78
2022-08-28T08:58:02.788Z,100680.88
2022-08-28T09:00:31.432Z,100740.50
2022-08-28T09:03:04.260Z,100746.59
2022-08-28T09:05:40.401Z,100724.97
2022-08-28T09:08:08.215Z,100740.94
2022-08-28T09:10:37.702Z,100737.00
2022-08-28T09:13:10.337Z,100741.00
2022-08-28T09:15:40.723Z,100742.56
2022-08-28T09:18:14.191Z,100746.25
2022-08-28T09:20:42.393Z,100743.56
2022-08-28T09:23:12.579Z,100732.78
2022-08-28T09:25:50.831Z,100663.69
2022-08-28T09:28:22.111Z,100736.47
2022-08-28T09:30:58.999Z,100735.34
2022-08-28T09:33:44.836Z,100740.75
2022-08-28T09:36:29.102Z,100744.16
2022-08-28T09:39:07.596Z,100746.97
2022-08-28T09:41:55.432Z,100748.94
2022-08-28T09:44:23.126Z,100742.69
2022-08-28T09:46:52.152Z,100747.81
2022-08-28T09:49:26.216Z,100737.19
2022-08-28T09:51:54.010Z,100746.00
2022-08-28T09:54:24.232Z,100738.19
2022-08-28T09:56:51.970Z,100737.38
2022-08-28T09:59:20.318Z,100745.31
2022-08-28T10:01:56.556Z,100733.41
2022-08-28T10:04:32.489Z,100635.91
2022-08-28T10:07:03.300Z,100727.75
2022-08-28T10:09:33.269Z,100732.19
2022-08-28T10:12:01.994Z,100733.16
2022-08-28T10:14:38.164Z,100740.00
2022-08-28T10:17:09.861Z,100738.13
2022-08-28T10:19:43.459Z,100736.31
2022-08-28T10:22:18.010Z,100739.72
2022-08-28T10:24:56.273Z,100719.69
2022-08-28T10:27:32.288Z,100729.34
2022-08-28T10:30:07.731Z,100738.91
2022-08-28T10:33:00.738Z,100739.47
2022-08-28T10:35:36.036Z,100727.69
2022-08-28T10:38:06.316Z,100734.69
2022-08-28T10:40:36.700Z,100727.88
2022-08-28T10:43:06.397Z,100735.72
2022-08-28T10:45:34.660Z,100674.50
2022-08-28T10:48:08.157Z,100671.75
2022-08-28T10:50:40.275Z,100730.78
2022-08-28T10:53:08.419Z,100669.53
2022-08-28T10:55:37.571Z,100664.13
2022-08-28T10:58:06.164Z,100702.56
2022-08-28T11:00:53.312Z,100729.09
2022-08-28T11:03:33.932Z,100714.94
2022-08-28T11:06:05.823Z,100718.31
2022-08-28T11:08:34.672Z,100719.75
2022-08-28T11:11:03.040Z,100721.47
2022-08-28T11:13:42.599Z,100722.19
2022-08-28T11:16:19.069Z,100721.31
2022-08-28T11:19:17.368Z,100727.31
2022-08-28T11:21:48.453Z,100722.75
2022-08-28T11:24:28.002Z,100685.97
2022-08-28T11:27:01.819Z,100725.16
2022-08-28T11:29:58.294Z,100730.28
2022-08-28T11:32:38.150Z,100728.44
2022-08-28T11:35:37.933Z,100731.00
2022-08-28T11:38:06.993Z,100726.47
2022-08-28T11:40:56.774Z,100728.88
2022-08-28T11:43:37.410Z,100725.19
2022-08-28T11:46:26.634Z,100711.56
2022-08-28T11:48:54.907Z,100677.47
2022-08-28T11:51:49.977Z,100718.50
2022-08-28T11:54:29.309Z,100679.19
2022-08-28T11:57:05.458Z,100689.97
2022-08-28T11:59:57.321Z,100711.88
2022-08-28T12:02:48.806Z,100670.97
2022-08-28T12:05:42.582Z,100719.69
2022-08-28T12:08:13.532Z,100724.06
2022-08-28T12:10:55.642Z,100724.78
2022-08-28T12:13:49.332Z,100718.25
2022-08-28T12:16:17.282Z,100680.19
2022-08-28T12:19:02.049Z,100707.75
2022-08-28T12:21:29.897Z,100723.50
2022-08-28T12:24:09.037Z,100716.13
2022-08-28T12:26:39.983Z,100673.81
2022-08-28T12:29:17.251Z,100725.78
2022-08-28T12:32:12.843Z,100722.94
2022-08-28T12:34:49.920Z,100714.00
2022-08-28T12:37:39.554Z,100711.16
2022-08-28T12:40:22.267Z,100709.31
2022-08-28T12:42:55.184Z,100710.19
2022-08-28T12:45:26.077Z,100709.19
2022-08-28T12:47:54.884Z,100710.72
2022-08-28T12:50:27.351Z,100707.94
2022-08-28T12:52:56.028Z,100705.91
2022-08-28T12:55:24.568Z,100710.47
2022-08-28T12:57:54.023Z,100704.94
2022-08-28T13:00:23.071Z,100668.44
2022-08-28T13:02:52.062Z,100721.00
2022-08-28T13:05:31.562Z,100696.69
2022-08-28T13:08:00.471Z,100649.69
2022-08-28T13:10:30.650Z,100703.69
2022-08-28T13:13:04.797Z,100690.72
2022-08-28T13:15:43.980Z,100640.75
2022-08-28T13:18:11.695Z,100707.94
2022-08-28T13:20:39.657Z,100700.56
2022-08-28T13:23:07.557Z,100666.59
2022-08-28T13:25:36.491Z,100687.94
2022-08-28T13:28:06.495Z,100642.91
2022-08-28T13:30:34.518Z,100697.44
2022-08-28T13:33:03.092Z,100706.22
2022-08-28T13:35:39.019Z,100688.34
2022-08-28T13:38:08.521Z,100634.53
2022-08-28T13:40:59.377Z,100628.13
2022-08-28T13:43:29.859Z,100689.88
2022-08-28T13:45:57.825Z,100696.00
2022-08-28T13:48:26.536Z,100694.84
2022-08-28T13:50:55.920Z,100644.06
2022-08-28T13:53:23.691Z,100671.28
2022-08-28T13:55:51.382Z,100689.72
2022-08-28T13:58:19.176Z,100687.00
2022-08-28T14:00:49.442Z,100678.66
2022-08-28T14:03:34.979Z,100685.59
2022-08-28T14:06:02.893Z,100685.31
2022-08-28T14:08:30.714Z,100680.59
2022-08-28T14:10:58.503Z,100683.00
2022-08-28T14:13:27.731Z,100684.59
2022-08-28T14:15:57.007Z,100684.44
2022-08-28T14:18:25.590Z,100616.50
2022-08-28T14:20:53.412Z,100619.75
2022-08-28T14:23:21.133Z,100683.75
2022-08-28T14:25:49.152Z,100685.44
2022-08-28T14:28:17.083Z,100674.34
2022-08-28T14:30:46.051Z,100669.50
2022-08-28T14:33:18.668Z,100674.59
2022-08-28T14:35:46.631Z,100672.59
2022-08-28T14:38:14.406Z,100676.56
2022-08-28T14:40:43.222Z,100681.38
2022-08-28T14:43:11.368Z,100665.03
2022-08-28T14:45:43.194Z,100670.97
2022-08-28T14:48:11.011Z,100668.81
2022-08-28T14:50:43.966Z,100667.38
2022-08-28T14:53:11.837Z,100658.13
2022-08-28T14:55:40.958Z,100660.38
2022-08-28T14:58:08.743Z,100661.06
2022-08-28T15:00:39.858Z,100666.00
2022-08-28T15:03:07.648Z,100664.75
2022-08-28T15:05:35.566Z,100658.16
2022-08-28T15:08:07.262Z,100664.28
2022-08-28T15:10:34.942Z,100620.91
2022-08-28T15:13:02.642Z,100662.09
2022-08-28T15:15:31.079Z,100667.25
2022-08-28T15:17:58.796Z,100666.78
2022-08-28T15:20:26.492Z,100667.81
2022-08-28T15:22:54.208Z,100674.28
2022-08-28T15:25:23.311Z,100673.84
2022-08-28T15:27:51.030Z,100673.69
2022-08-28T15:30:19.253Z,100674.41
2022-08-28T15:32:48.807Z,100669.69
2022-08-28T15:35:17.037Z,100670.53
2022-08-28T15:37:44.776Z,100675.63
2022-08-28T15:40:30.218Z,100670.94
2022-08-28T15:42:59.386Z,100669.91
2022-08-28T15:45:27.301Z,100660.81
2022-08-28T15:47:55.171Z,100665.06
2022-08-28T15:50:23.418Z,100668.47
2022-08-28T15:52:51.140Z,100673.56
2022-08-28T15:55:21.207Z,100667.84
2022-08-28T15:57:49.695Z,100669.53
2022-08-28T16:00:19.168Z,100677.50
2022-08-28T16:02:46.887Z,100685.63
2022-08-28T16:05:14.655Z,100679.19
2022-08-28T16:07:42.507Z,100677.50
2022-08-28T16:10:13.357Z,100680.91
2022-08-28T16:12:41.188Z,100629.91
2022-08-28T16:15:10.306Z,100682.31
2022-08-28T16:17:39.384Z,100681.28
2022-08-28T16:20:11.098Z,100683.16
2022-08-28T16:22:40.900Z,100686.84
2022-08-28T16:25:10.228Z,100690.56
2022-08-28T16:27:37.953Z,100697.06
2022-08-28T16:30:15.731Z,100684.84
2022-08-28T16:32:46.785Z,100700.47
2022-08-28T16:35:15.902Z,100658.63
2022-08-28T16:40:03.884Z,100688.47
2022-08-28T16:42:32.956Z,100688.19
2022-08-28T16:45:00.735Z,100687.06
2022-08-28T16:47:28.502Z,100686.75
2022-08-28T16:50:01.217Z,100692.69
2022-08-28T16:52:28.945Z,100691.53
2022-08-28T16:54:56.639Z,100692.22
2022-08-28T16:57:24.785Z,100685.28
2022-08-28T16:59:53.170Z,100692.38
2022-08-28T17:02:26.409Z,100646.28
2022-08-28T17:04:54.456Z,100682.09
2022-08-28T17:07:23.503Z,100684.50
2022-08-28T17:09:51.244Z,100686.88
2022-08-28T17:12:18.944Z,100686.88
2022-08-28T17:14:46.693Z,100681.31
2022-08-28T17:17:14.391Z,100681.31
2022-08-28T17:19:42.106Z,100685.03
2022-08-28T17:22:27.604Z,100691.13
2022-08-28T17:24:58.776Z,100564.47
2022-08-28T17:27:26.639Z,100689.75
2022-08-28T17:29:54.361Z,100684.88
2022-08-28T17:32:22.070Z,100693.97
2022-08-28T17:34:49.963Z,100697.72
2022-08-28T17:37:19.056Z,100702.25
2022-08-28T17:39:46.806Z,100698.34
2022-08-28T17:42:15.853Z,100693.00
2022-08-28T17:44:43.644Z,100707.84
2022-08-28T17:47:11.954Z,100700.47
2022-08-28T17:49:40.340Z,100704.81
2022-08-28T17:52:08.042Z,100706.25
2022-08-28T17:54:35.746Z,100712.09
2022-08-28T17:57:03.446Z,100711.59
2022-08-28T17:59:32.999Z,100717.44
2022-08-28T18:02:01.415Z,100705.81
2022-08-28T18:04:29.610Z,100719.19
2022-08-28T18:06:58.412Z,100721.81
2022-08-28T18:09:26.156Z,100723.97
2022-08-28T18:11:53.878Z,100715.28
2022-08-28T18:14:21.659Z,100721.84
2022-08-28T18:16:51.362Z,100716.75
2022-08-28T18:19:19.188Z,100716.31
2022-08-28T18:21:46.964Z,100636.25
2022-08-28T18:24:14.700Z,100723.03
2022-08-28T18:26:42.601Z,100719.59
2022-08-28T18:29:10.759Z,100723.63
2022-08-28T18:31:38.551Z,100731.00
2022-08-28T18:34:07.681Z,100724.22
2022-08-28T18:36:36.947Z,100732.63
2022-08-28T18:39:04.902Z,100719.44
2022-08-28T18:41:34.519Z,100733.34
2022-08-28T18:44:12.289Z,100749.72
2022-08-28T18:46:40.141Z,100740.22
2022-08-28T18:49:09.287Z,100749.28
2022-08-28T18:51:37.076Z,100708.16
2022-08-28T18:54:05.015Z,100755.28
2022-08-28T18:56:33.977Z,100747.75
2022-08-28T18:59:04.019Z,100756.72
2022-08-28T19:01:31.839Z,100765.25
2022-08-28T19:03:59.696Z,100768.13
2022-08-28T19:06:28.761Z,100767.25
2022-08-28T19:08:56.551Z,100771.25
2022-08-28T19:11:24.243Z,100773.22
2022-08-28T19:13:51.986Z,100771.53
2022-08-28T19:16:20.554Z,100769.25
2022-08-28T19:18:48.686Z,100704.25
2022-08-28T19:21:20.829Z,100787.56
2022-08-28T19:23:55.574Z,100786.88
2022-08-28T19:26:24.580Z,100725.25
2022-08-28T19:28:52.379Z,100799.06
2022-08-28T19:31:20.211Z,100793.81
2022-08-28T19:33:48.144Z,100802.06
2022-08-28T19:36:16.175Z,100801.38
2022-08-28T19:38:44.031Z,100809.63
2022-08-28T19:41:13.182Z,100760.75
2022-08-28T19:43:44.281Z,100812.03
2022-08-28T19:46:18.367Z,100777.38
2022-08-28T19:48:47.957Z,100815.00
2022-08-28T19:51:22.432Z,100820.53
2022-08-28T19:53:56.910Z,100821.69
2022-08-28T19:56:27.855Z,100824.66
2022-08-28T19:58:58.525Z,100826.91
2022-08-28T20:01:26.441Z,100822.53
2022-08-28T20:03:54.190Z,100824.38
2022-08-28T20:06:21.901Z,100827.34
2022-08-28T20:08:49.619Z,100834.03
2022-08-28T20:11:19.608Z,100821.97
2022-08-28T20:13:48.456Z,100837.69
2022-08-28T20:16:16.405Z,100839.53
2022-08-28T20:18:44.309Z,100834.13
2022-08-28T20:21:12.355Z,100777.41
2022-08-28T20:23:40.416Z,100833.72
2022-08-28T20:26:08.672Z,100848.19
2022-08-28T20:28:36.576Z,100842.66
2022-08-28T20:31:09.655Z,100849.03
2022-08-28T20:33:37.458Z,100846.47
2022-08-28T20:36:06.574Z,100848.41
2022-08-28T20:38:38.946Z,100869.16
2022-08-28T20:41:07.549Z,100793.94
2022-08-28T20:43:35.621Z,100863.31
2022-08-28T20:46:03.378Z,100872.56
2022-08-28T20:48:34.255Z,100872.97
2022-08-28T20:51:01.960Z,100875.34
2022-08-28T20:53:37.539Z,100818.16
2022-08-28T20:56:06.774Z,100793.66
2022-08-28T20:58:34.535Z,100884.44
2022-08-28T21:01:02.450Z,100887.13
2022-08-28T21:03:30.206Z,100882.69
2022-08-28T21:05:59.256Z,100881.88
2022-08-28T21:08:27.000Z,100884.97
2022-08-28T21:10:54.757Z,100866.19
2022-08-28T21:13:23.706Z,100886.06
2022-08-28T21:15:51.431Z,100892.59
2022-08-28T21:18:19.165Z,100889.03
2022-08-28T21:20:46.909Z,100893.88
2022-08-28T21:23:16.281Z,100895.69
2022-08-28T21:25:44.056Z,100895.09
2022-08-28T21:28:11.827Z,100890.84
2022-08-28T21:30:41.517Z,100853.81
2022-08-28T21:33:09.309Z,100886.59
2022-08-28T21:35:37.007Z,100888.69
2022-08-28T21:38:04.690Z,100891.13
2022-08-28T21:40:35.277Z,100826.34
2022-08-28T21:43:03.050Z,100891.25
2022-08-28T21:45:30.791Z,100898.06
2022-08-28T21:47:58.472Z,100863.22
2022-08-28T21:50:29.113Z,100894.41
2022-08-28T21:52:56.983Z,100888.28
2022-08-28T21:55:24.967Z,100853.22
2022-08-28T21:57:54.011Z,100902.75
2022-08-28T22:00:23.076Z,100874.72
2022-08-28T22:02:50.850Z,100902.91
2022-08-28T22:05:18.799Z,100903.03
2022-08-28T22:07:46.521Z,100909.25
2022-08-28T22:10:15.006Z,100902.16
2022-08-28T22:12:42.752Z,100896.91
2022-08-28T22:15:12.226Z,100894.22
2022-08-28T22:17:39.931Z,100890.78
2022-08-28T22:20:08.561Z,100894.63
2022-08-28T22:22:53.595Z,100892.06
2022-08-28T22:25:21.450Z,100892.31
2022-08-28T22:27:49.135Z,100894.16
2022-08-28T22:30:18.202Z,100890.63
2022-08-28T22:32:46.247Z,100886.19
2022-08-28T22:35:13.970Z,100895.41
2022-08-28T22:37:41.663Z,100887.47
2022-08-28T22:40:13.217Z,100888.47
2022-08-28T22:42:41.550Z,100901.03
2022-08-28T22:45:10.257Z,100887.81
2022-08-28T22:47:39.588Z,100896.91
2022-08-28T22:50:08.520Z,100893.47
2022-08-28T22:52:37.186Z,100891.91
2022-08-28T22:55:06.649Z,100891.91
2022-08-28T22:57:34.476Z,100885.78
2022-08-28T23:00:04.015Z,100892.19
2022-08-28T23:02:31.714Z,100893.16
2022-08-28T23:05:00.798Z,100901.38
2022-08-28T23:07:28.496Z,100898.22
2022-08-28T23:09:56.237Z,100895.53
2022-08-28T23:12:24.110Z,100895.66
2022-08-28T23:14:52.015Z,100901.19
2022-08-28T23:17:19.812Z,100894.19
2022-08-28T23:19:48.216Z,100888.25
2022-08-28T23:22:18.327Z,100893.38
2022-08-28T23:24:47.234Z,100884.47
2022-08-28T23:27:35.469Z,100894.59
2022-08-28T23:30:02.917Z,100896.59
2022-08-28T23:32:30.778Z,100849.47
2022-08-28T23:35:01.692Z,100835.31
2022-08-28T23:37:30.916Z,100894.53
2022-08-28T23:39:58.993Z,100887.44
2022-08-28T23:42:28.560Z,100892.13
2022-08-28T23:44:56.906Z,100887.69
2022-08-28T23:47:24.843Z,100890.38
2022-08-28T23:49:52.569Z,100890.38
2022-08-28T23:52:20.263Z,100883.31
2022-08-28T23:54:51.335Z,100888.81
2022-08-28T23:57:19.034Z,100885.53
2022-08-28T23:59:47.318Z,100884.69
